Metlakatla, Alaska
Current Conditions -  °F | °C
As of 5:16 AM on Monday 24 Nov 2014 (Local Time) from PAMM Reporting Station
Overcast Overcast  
Wind Chill: 44°   Ceiling: 2700
Heat Index: 46°   Visibility: 10mi
Dew Point: 43°   Wind: 6mph
Humidity: 87%   Direction: 190°S
Pressure: 29.77"   Gusts: NA
Location:  55.11°N, 131.58°W
Report Text: PAMM 241416Z AUTO 19005KT 10SM FEW022 BKN027 OVC048 08/06 A2977 RMK AO1
Loading
Personal Weather Stations






























Interactive Weather Map New forecast layout! Learn more

10-Day Weather Forecast

Advertisements
Track Severe Weather on mobile